createdAt,value
2023-03-19T00:02:22.590Z,27.70
2023-03-19T00:04:50.995Z,27.13
2023-03-19T00:07:19.300Z,23.70
2023-03-19T00:09:48.510Z,28.50
2023-03-19T00:12:17.110Z,27.92
2023-03-19T00:14:45.777Z,27.67
2023-03-19T00:17:15.530Z,28.80
2023-03-19T00:19:43.924Z,32.47
2023-03-19T00:22:12.330Z,26.40
2023-03-19T00:24:40.672Z,27.63
2023-03-19T00:27:09.048Z,32.50
2023-03-19T00:29:37.549Z,31.27
2023-03-19T00:32:06.387Z,31.73
2023-03-19T00:34:36.118Z,30.33
2023-03-19T00:37:04.531Z,30.70
2023-03-19T00:39:32.973Z,25.92
2023-03-19T00:42:01.560Z,29.35
2023-03-19T00:44:29.930Z,27.45
2023-03-19T00:46:58.250Z,27.92
2023-03-19T00:49:26.548Z,32.65
2023-03-19T00:51:56.259Z,29.67
2023-03-19T00:54:24.590Z,29.45
2023-03-19T00:56:52.871Z,34.40
2023-03-19T00:59:21.246Z,34.70
2023-03-19T01:01:49.637Z,33.53
2023-03-19T01:04:18.222Z,29.08
2023-03-19T01:06:46.790Z,28.92
2023-03-19T01:09:16.509Z,24.90
2023-03-19T01:11:44.836Z,27.00
2023-03-19T01:14:13.167Z,32.35
2023-03-19T01:16:41.648Z,25.70
2023-03-19T01:19:10.281Z,35.05
2023-03-19T01:21:38.718Z,28.65
2023-03-19T01:24:07.368Z,34.17
2023-03-19T01:26:37.163Z,31.13
2023-03-19T01:29:17.040Z,30.77
2023-03-19T01:31:45.362Z,31.65
2023-03-19T01:34:33.369Z,32.13
2023-03-19T01:37:10.355Z,28.95
2023-03-19T01:39:40.615Z,31.35
2023-03-19T01:42:14.826Z,29.95
2023-03-19T01:45:04.440Z,32.47
2023-03-19T01:47:43.985Z,33.17
2023-03-19T01:50:25.073Z,29.40
2023-03-19T01:53:05.973Z,37.17
2023-03-19T01:55:58.212Z,41.10
2023-03-19T01:58:41.298Z,28.00
2023-03-19T02:01:19.186Z,35.95
2023-03-19T02:03:52.743Z,37.92
2023-03-19T02:06:28.439Z,32.95
2023-03-19T02:08:59.158Z,30.80
2023-03-19T02:11:28.189Z,30.50
2023-03-19T02:13:58.161Z,31.38
2023-03-19T02:16:27.248Z,31.00
2023-03-19T02:18:56.132Z,34.28
2023-03-19T02:21:24.726Z,33.35
2023-03-19T02:24:00.866Z,35.25
2023-03-19T02:27:03.361Z,28.40
2023-03-19T02:29:33.401Z,36.13
2023-03-19T02:32:03.735Z,29.83
2023-03-19T02:34:37.781Z,36.17
2023-03-19T02:37:12.630Z,30.33
2023-03-19T02:39:48.252Z,29.77
2023-03-19T02:42:19.712Z,29.40
2023-03-19T02:44:48.341Z,31.55
2023-03-19T02:47:17.150Z,33.33
2023-03-19T02:49:46.120Z,28.85
2023-03-19T02:52:14.900Z,36.08
2023-03-19T02:54:43.229Z,36.53
2023-03-19T02:57:11.966Z,30.65
2023-03-19T02:59:41.953Z,30.98
2023-03-19T03:02:10.865Z,32.00
2023-03-19T03:04:39.506Z,32.60
2023-03-19T03:07:08.574Z,32.63
2023-03-19T03:09:36.928Z,32.55
2023-03-19T03:12:06.169Z,34.15
2023-03-19T03:14:35.185Z,37.33
2023-03-19T03:17:04.883Z,34.20
2023-03-19T03:19:33.921Z,33.40
2023-03-19T03:22:02.383Z,34.25
2023-03-19T03:24:31.165Z,36.22
2023-03-19T03:26:59.483Z,34.28
2023-03-19T03:29:28.068Z,32.75
2023-03-19T03:31:56.627Z,36.80
2023-03-19T03:34:26.373Z,43.03
2023-03-19T03:36:54.701Z,39.97
2023-03-19T03:39:23.182Z,39.55
2023-03-19T03:41:51.715Z,34.35
2023-03-19T03:44:20.391Z,32.95
2023-03-19T03:46:49.451Z,35.17
2023-03-19T03:49:17.834Z,31.92
2023-03-19T03:51:47.672Z,33.83
2023-03-19T03:54:16.497Z,31.85
2023-03-19T03:56:44.852Z,36.25
2023-03-19T03:59:13.317Z,40.17
2023-03-19T04:01:41.655Z,33.85
2023-03-19T04:04:10.743Z,32.60
2023-03-19T04:06:39.060Z,30.50
2023-03-19T04:09:32.215Z,32.03
2023-03-19T04:12:01.063Z,34.45
2023-03-19T04:14:29.484Z,39.88
2023-03-19T04:16:58.594Z,36.88
2023-03-19T04:19:27.278Z,34.42
2023-03-19T04:21:55.727Z,29.45
2023-03-19T04:24:24.295Z,37.33
2023-03-19T04:26:53.996Z,32.30
2023-03-19T04:29:23.068Z,38.75
2023-03-19T04:31:52.604Z,38.60
2023-03-19T04:34:20.996Z,34.95
2023-03-19T04:36:50.018Z,34.97
2023-03-19T04:39:18.582Z,28.20
2023-03-19T04:41:46.967Z,30.63
2023-03-19T04:44:28.494Z,31.75
2023-03-19T04:46:57.235Z,29.13
2023-03-19T04:49:27.318Z,38.85
2023-03-19T04:51:57.757Z,38.33
2023-03-19T04:54:26.116Z,34.22
2023-03-19T04:56:54.484Z,28.63
2023-03-19T04:59:25.459Z,37.08
2023-03-19T05:01:55.720Z,41.72
2023-03-19T05:04:25.373Z,38.65
2023-03-19T05:06:58.234Z,34.72
2023-03-19T05:09:26.627Z,33.03
2023-03-19T05:11:55.060Z,35.05
2023-03-19T05:14:24.358Z,32.50
2023-03-19T05:17:30.044Z,36.97
2023-03-19T05:20:21.340Z,33.28
2023-03-19T05:22:55.749Z,39.67
2023-03-19T05:25:35.243Z,37.08
2023-03-19T05:28:05.007Z,31.90
2023-03-19T05:30:33.597Z,34.67
2023-03-19T05:33:28.972Z,35.72
2023-03-19T05:35:58.402Z,29.80
2023-03-19T05:38:46.837Z,33.58
2023-03-19T05:41:21.792Z,30.88
2023-03-19T05:43:58.628Z,38.38
2023-03-19T05:46:48.134Z,35.80
2023-03-19T05:49:19.887Z,33.30
2023-03-19T05:51:48.219Z,38.88
2023-03-19T05:54:16.665Z,36.50
2023-03-19T05:57:00.944Z,31.55
2023-03-19T05:59:40.324Z,38.05
2023-03-19T06:02:26.010Z,28.27
2023-03-19T06:05:09.780Z,37.47
2023-03-19T06:07:38.610Z,33.42
2023-03-19T06:10:13.120Z,33.03
2023-03-19T06:12:42.202Z,31.98
2023-03-19T06:15:33.901Z,31.48
2023-03-19T06:18:21.491Z,33.03
2023-03-19T06:20:51.528Z,28.67
2023-03-19T06:23:20.675Z,38.15
2023-03-19T06:25:48.963Z,35.08
2023-03-19T06:28:18.148Z,30.48
2023-03-19T06:30:46.958Z,28.27
2023-03-19T06:33:41.594Z,26.10
2023-03-19T06:36:12.077Z,28.02
2023-03-19T06:38:41.279Z,28.90
2023-03-19T06:41:09.541Z,30.42
2023-03-19T06:43:38.060Z,31.70
2023-03-19T06:46:08.803Z,30.30
2023-03-19T06:48:37.839Z,33.20
2023-03-19T06:51:07.234Z,27.15
2023-03-19T06:53:37.300Z,30.08
2023-03-19T06:56:05.976Z,28.63
2023-03-19T06:58:35.426Z,25.38
2023-03-19T07:01:03.740Z,28.42
2023-03-19T07:03:32.371Z,28.38
2023-03-19T07:06:00.758Z,30.13
2023-03-19T07:08:30.005Z,28.83
2023-03-19T07:11:05.294Z,33.97
2023-03-19T07:13:33.789Z,27.98
2023-03-19T07:16:02.133Z,28.45
2023-03-19T07:18:30.386Z,31.65
2023-03-19T07:20:58.765Z,28.23
2023-03-19T07:23:27.095Z,30.17
2023-03-19T07:25:55.600Z,31.42
2023-03-19T07:28:25.679Z,28.50
2023-03-19T07:30:54.364Z,30.27
2023-03-19T07:33:23.108Z,27.75
2023-03-19T07:35:51.893Z,36.75
2023-03-19T07:38:20.308Z,28.00
2023-03-19T07:41:01.435Z,27.67
2023-03-19T07:43:32.149Z,26.75
2023-03-19T07:46:01.080Z,27.35
2023-03-19T07:48:29.488Z,30.10
2023-03-19T07:50:57.785Z,26.65
2023-03-19T07:53:26.336Z,27.42
2023-03-19T07:55:54.614Z,30.33
2023-03-19T07:58:22.897Z,34.20
2023-03-19T08:00:52.786Z,30.00
2023-03-19T08:03:21.138Z,39.47
2023-03-19T08:05:50.308Z,23.35
2023-03-19T08:08:19.277Z,29.00
2023-03-19T08:10:50.901Z,33.53
2023-03-19T08:13:19.217Z,25.05
2023-03-19T08:15:47.517Z,29.73
2023-03-19T08:18:17.151Z,27.10
2023-03-19T08:20:46.258Z,30.30
2023-03-19T08:23:14.887Z,24.60
2023-03-19T08:25:43.541Z,25.73
2023-03-19T08:28:11.988Z,26.27
2023-03-19T08:30:41.059Z,27.48
2023-03-19T08:33:09.459Z,31.88
2023-03-19T08:35:39.240Z,27.75
2023-03-19T08:38:07.507Z,26.10
2023-03-19T08:40:36.411Z,32.20
2023-03-19T08:43:05.251Z,33.30
2023-03-19T08:45:33.734Z,31.55
2023-03-19T08:48:01.985Z,24.08
2023-03-19T08:50:30.422Z,27.60
2023-03-19T08:53:00.077Z,24.83
2023-03-19T08:55:28.309Z,27.02
2023-03-19T08:57:56.524Z,27.67
2023-03-19T09:00:25.167Z,31.85
2023-03-19T09:02:53.479Z,27.52
2023-03-19T09:05:23.355Z,29.33
2023-03-19T09:07:52.225Z,30.48
2023-03-19T09:10:22.000Z,26.48
2023-03-19T09:12:50.288Z,27.42
2023-03-19T09:15:18.565Z,26.05
2023-03-19T09:17:46.874Z,23.50
2023-03-19T09:20:15.150Z,26.10
2023-03-19T09:22:43.544Z,21.58
2023-03-19T09:25:12.327Z,20.83
2023-03-19T09:27:42.107Z,22.02
2023-03-19T09:30:11.940Z,20.05
2023-03-19T09:32:40.857Z,20.60
2023-03-19T09:35:12.538Z,24.00
2023-03-19T09:37:40.928Z,23.30
2023-03-19T09:40:16.368Z,21.73
2023-03-19T09:42:59.141Z,22.17
2023-03-19T09:45:29.925Z,27.08
2023-03-19T09:48:04.356Z,20.83
2023-03-19T09:50:34.847Z,18.77
2023-03-19T09:53:08.596Z,20.73
2023-03-19T09:55:45.118Z,19.65
2023-03-19T09:58:18.966Z,22.30
2023-03-19T10:00:50.261Z,25.70
2023-03-19T10:03:44.627Z,22.67
2023-03-19T10:06:26.652Z,24.15
2023-03-19T10:09:13.523Z,21.00
2023-03-19T10:11:56.377Z,21.48
2023-03-19T10:14:50.482Z,18.77
2023-03-19T10:17:22.141Z,20.75
2023-03-19T10:19:54.232Z,21.60
2023-03-19T10:22:27.279Z,22.45
2023-03-19T10:24:58.675Z,20.27
2023-03-19T10:27:29.817Z,20.98
2023-03-19T10:29:59.573Z,18.65
2023-03-19T10:32:37.355Z,18.33
2023-03-19T10:35:11.506Z,23.02
2023-03-19T10:37:39.993Z,20.05
2023-03-19T10:40:19.770Z,18.30
2023-03-19T10:43:02.675Z,17.88
2023-03-19T10:45:35.901Z,20.77
2023-03-19T10:48:06.531Z,20.20
2023-03-19T10:50:38.827Z,20.08
2023-03-19T10:53:22.533Z,18.85
2023-03-19T10:55:55.369Z,17.52
2023-03-19T10:58:27.247Z,17.85
2023-03-19T11:01:00.693Z,24.23
2023-03-19T11:03:33.096Z,19.73
2023-03-19T11:06:18.366Z,23.73
2023-03-19T11:08:55.402Z,19.55
2023-03-19T11:11:33.976Z,18.45
2023-03-19T11:14:10.104Z,16.17
2023-03-19T11:16:56.951Z,15.43
2023-03-19T11:19:26.373Z,16.90
2023-03-19T11:22:04.180Z,20.65
2023-03-19T11:24:38.705Z,16.70
2023-03-19T11:27:08.141Z,18.02
2023-03-19T11:29:41.810Z,19.98
2023-03-19T11:32:26.603Z,16.83
2023-03-19T11:35:00.207Z,16.38
2023-03-19T11:37:34.650Z,18.10
2023-03-19T11:40:14.497Z,17.20
2023-03-19T11:43:07.536Z,17.50
2023-03-19T11:45:41.979Z,20.70
2023-03-19T11:48:28.880Z,15.63
2023-03-19T11:51:01.740Z,16.48
2023-03-19T11:53:36.602Z,16.95
2023-03-19T11:56:15.521Z,23.52
2023-03-19T11:59:07.817Z,19.25
2023-03-19T12:01:54.158Z,15.20
2023-03-19T12:04:49.427Z,16.05
2023-03-19T12:07:26.577Z,18.80
2023-03-19T12:10:09.015Z,15.95
2023-03-19T12:12:44.548Z,16.05
2023-03-19T12:15:22.504Z,17.05
2023-03-19T12:18:01.772Z,15.02
2023-03-19T12:20:39.399Z,15.38
2023-03-19T12:23:13.628Z,16.70
2023-03-19T12:26:06.198Z,17.00
2023-03-19T12:28:36.941Z,17.27
2023-03-19T12:31:27.762Z,18.65
2023-03-19T12:34:09.815Z,17.23
2023-03-19T12:36:47.263Z,14.48
2023-03-19T12:39:19.484Z,16.65
2023-03-19T12:41:50.398Z,16.10
2023-03-19T12:44:23.875Z,16.60
2023-03-19T12:46:59.285Z,19.38
2023-03-19T12:49:31.678Z,16.02
2023-03-19T12:52:07.161Z,15.30
2023-03-19T12:54:41.490Z,15.10
2023-03-19T12:57:13.493Z,15.27
2023-03-19T12:59:48.855Z,17.00
2023-03-19T13:02:23.255Z,16.50
2023-03-19T13:04:57.515Z,15.57
2023-03-19T13:07:34.373Z,15.38
2023-03-19T13:10:08.216Z,14.35
2023-03-19T13:12:38.765Z,21.48
2023-03-19T13:15:12.952Z,17.60
2023-03-19T13:17:51.177Z,16.75
2023-03-19T13:20:25.309Z,14.43
2023-03-19T13:22:57.361Z,14.85
2023-03-19T13:25:32.402Z,15.35
2023-03-19T13:28:00.736Z,18.77
2023-03-19T13:30:30.011Z,17.60
2023-03-19T13:33:05.183Z,15.07
2023-03-19T13:35:40.754Z,23.05
2023-03-19T13:38:19.634Z,17.40
2023-03-19T13:40:50.302Z,14.00
2023-03-19T13:46:45.164Z,16.98
2023-03-19T13:49:29.151Z,16.27
2023-03-19T13:52:01.454Z,14.35
2023-03-19T13:54:42.722Z,16.98
2023-03-19T13:57:35.761Z,18.70
2023-03-19T14:00:36.981Z,16.77
2023-03-19T14:03:17.848Z,17.05
2023-03-19T14:05:47.740Z,17.55
2023-03-19T14:08:20.807Z,14.50
2023-03-19T14:10:53.209Z,15.07
2023-03-19T14:13:31.470Z,13.93
2023-03-19T14:16:08.218Z,18.63
2023-03-19T14:18:42.251Z,14.30
2023-03-19T14:21:16.257Z,16.35
2023-03-19T14:23:55.040Z,17.95
2023-03-19T14:26:28.858Z,13.27
2023-03-19T14:29:01.421Z,17.20
2023-03-19T14:31:35.322Z,15.80
2023-03-19T14:34:08.952Z,13.63
2023-03-19T14:36:39.401Z,14.75
2023-03-19T14:39:14.609Z,16.75
2023-03-19T14:41:47.490Z,14.52
2023-03-19T14:44:55.735Z,13.90
2023-03-19T14:47:46.463Z,14.35
2023-03-19T14:50:31.069Z,12.73
2023-03-19T14:53:04.357Z,13.93
2023-03-19T14:55:37.561Z,16.65
2023-03-19T14:58:07.352Z,12.38
2023-03-19T15:00:44.766Z,10.95
2023-03-19T15:03:23.120Z,12.98
2023-03-19T15:05:57.691Z,12.85
2023-03-19T15:08:26.777Z,13.85
2023-03-19T15:11:07.548Z,10.52
2023-03-19T15:13:48.250Z,9.10
2023-03-19T15:16:29.658Z,10.80
2023-03-19T15:18:58.248Z,10.52
2023-03-19T15:21:26.785Z,13.75
2023-03-19T15:23:55.313Z,12.88
2023-03-19T15:26:32.144Z,17.63
2023-03-19T15:29:04.263Z,16.50
2023-03-19T15:31:51.485Z,13.70
2023-03-19T15:34:24.083Z,16.08
2023-03-19T15:36:56.365Z,11.70
2023-03-19T15:39:28.216Z,10.68
2023-03-19T15:41:57.595Z,9.43
2023-03-19T15:44:33.285Z,14.30
2023-03-19T15:47:05.672Z,11.00
2023-03-19T15:49:39.052Z,11.48
2023-03-19T15:52:12.313Z,10.93
2023-03-19T15:54:41.287Z,13.20
2023-03-19T15:57:11.345Z,15.02
2023-03-19T15:59:42.083Z,12.25
2023-03-19T16:02:20.073Z,12.98
2023-03-19T16:05:18.070Z,11.02
2023-03-19T16:10:39.460Z,11.60
2023-03-19T16:13:30.159Z,11.88
2023-03-19T16:16:06.682Z,12.60
2023-03-19T16:18:45.694Z,11.15
2023-03-19T16:21:17.927Z,14.05
2023-03-19T16:23:51.059Z,10.20
2023-03-19T16:26:23.180Z,10.10
2023-03-19T16:29:00.071Z,10.60
2023-03-19T16:31:32.252Z,9.50
2023-03-19T16:34:02.538Z,13.27
2023-03-19T16:36:33.137Z,12.90
2023-03-19T16:39:24.489Z,12.15
2023-03-19T16:42:17.194Z,10.65
2023-03-19T16:44:49.481Z,9.35
2023-03-19T16:47:19.159Z,10.45
2023-03-19T16:49:48.047Z,10.35
2023-03-19T16:52:20.007Z,13.82
2023-03-19T16:54:48.843Z,19.00
2023-03-19T16:57:18.289Z,10.80
2023-03-19T16:59:48.326Z,10.63
2023-03-19T17:02:19.773Z,15.15
2023-03-19T17:04:48.422Z,13.85
2023-03-19T17:07:16.951Z,10.45
2023-03-19T17:09:45.359Z,12.73
2023-03-19T17:12:17.698Z,11.77
2023-03-19T17:14:46.301Z,13.95
2023-03-19T17:17:21.964Z,13.52
2023-03-19T17:19:51.533Z,13.23
2023-03-19T17:22:19.939Z,11.45
2023-03-19T17:24:48.390Z,13.15
2023-03-19T17:27:16.768Z,16.67
2023-03-19T17:29:45.096Z,13.57
2023-03-19T17:32:18.664Z,15.35
2023-03-19T17:34:48.480Z,15.15
2023-03-19T17:37:16.760Z,19.90
2023-03-19T17:39:45.933Z,12.38
2023-03-19T17:42:20.421Z,18.30
2023-03-19T17:44:48.734Z,11.75
2023-03-19T17:47:18.801Z,15.25
2023-03-19T17:49:48.935Z,17.83
2023-03-19T17:52:18.588Z,12.63
2023-03-19T17:54:46.908Z,16.80
2023-03-19T17:57:16.444Z,18.30
2023-03-19T17:59:44.697Z,20.05
2023-03-19T18:02:27.675Z,18.65
2023-03-19T18:04:57.947Z,16.95
2023-03-19T18:07:26.330Z,19.63
2023-03-19T18:09:54.801Z,18.45
2023-03-19T18:12:23.141Z,17.55
2023-03-19T18:14:51.442Z,18.48
2023-03-19T18:17:20.438Z,21.58
2023-03-19T18:19:50.823Z,26.02
2023-03-19T18:22:21.691Z,22.23
2023-03-19T18:24:50.210Z,24.05
2023-03-19T18:27:18.567Z,17.70
2023-03-19T18:29:46.880Z,18.33
2023-03-19T18:32:21.345Z,17.60
2023-03-19T18:34:49.676Z,17.88
2023-03-19T18:37:19.097Z,22.80
2023-03-19T18:39:50.025Z,21.98
2023-03-19T18:42:19.315Z,14.13
2023-03-19T18:44:48.561Z,16.02
2023-03-19T18:47:17.533Z,24.15
2023-03-19T18:49:46.146Z,16.88
2023-03-19T18:52:19.078Z,16.75
2023-03-19T18:54:49.887Z,21.73
2023-03-19T18:57:18.729Z,19.63
2023-03-19T18:59:47.464Z,21.17
2023-03-19T19:02:31.521Z,21.45
2023-03-19T19:04:59.847Z,18.73
2023-03-19T19:07:28.245Z,20.15
2023-03-19T19:09:58.287Z,24.17
2023-03-19T19:12:27.743Z,34.65
2023-03-19T19:14:58.722Z,42.05
2023-03-19T19:17:29.564Z,41.92
2023-03-19T19:19:59.001Z,40.78
2023-03-19T19:22:29.791Z,41.13
2023-03-19T19:24:59.554Z,34.80
2023-03-19T19:27:29.178Z,31.92
2023-03-19T19:29:57.531Z,36.70
2023-03-19T19:32:28.668Z,37.38
2023-03-19T19:34:57.656Z,40.58
2023-03-19T19:37:26.165Z,69.82
2023-03-19T19:39:54.568Z,58.90
2023-03-19T19:42:24.611Z,67.88
2023-03-19T19:44:54.913Z,71.10
2023-03-19T19:47:23.613Z,76.63
2023-03-19T19:49:51.926Z,77.32
2023-03-19T19:52:21.241Z,85.65
2023-03-19T19:54:51.880Z,88.57
2023-03-19T19:57:23.010Z,101.13
2023-03-19T19:59:55.405Z,84.82
2023-03-19T20:02:25.936Z,85.63
2023-03-19T20:04:54.393Z,95.38
2023-03-19T20:07:23.154Z,99.05
2023-03-19T20:09:51.551Z,100.95
2023-03-19T20:12:21.733Z,100.32
2023-03-19T20:14:50.838Z,88.75
2023-03-19T20:17:22.061Z,96.15
2023-03-19T20:19:52.559Z,95.35
2023-03-19T20:22:21.153Z,94.03
2023-03-19T20:24:51.371Z,86.78
2023-03-19T20:27:23.339Z,77.60
2023-03-19T20:29:53.826Z,81.13
2023-03-19T20:32:34.278Z,72.97
2023-03-19T20:35:02.944Z,57.95
2023-03-19T20:37:31.985Z,63.20
2023-03-19T20:40:00.281Z,51.10
2023-03-19T20:42:31.211Z,59.03
2023-03-19T20:45:01.461Z,57.28
2023-03-19T20:47:33.417Z,50.40
2023-03-19T20:50:02.737Z,44.47
2023-03-19T20:52:31.221Z,41.28
2023-03-19T20:54:59.630Z,45.33
2023-03-19T20:57:30.784Z,45.03
2023-03-19T21:00:03.358Z,56.28
2023-03-19T21:02:33.129Z,59.33
2023-03-19T21:05:07.574Z,59.80
2023-03-19T21:07:36.156Z,59.03
2023-03-19T21:10:16.431Z,62.03
2023-03-19T21:12:44.955Z,75.78
2023-03-19T21:15:16.149Z,66.03
2023-03-19T21:17:46.544Z,70.68
2023-03-19T21:20:19.461Z,60.00
2023-03-19T21:22:49.850Z,58.88
2023-03-19T21:25:22.619Z,60.78
2023-03-19T21:27:55.300Z,56.60
2023-03-19T21:30:24.649Z,63.03
2023-03-19T21:32:57.165Z,59.42
2023-03-19T21:35:27.339Z,62.20
2023-03-19T21:37:55.924Z,59.60
2023-03-19T21:40:29.275Z,62.75
2023-03-19T21:43:00.938Z,60.58
2023-03-19T21:45:31.844Z,59.75
2023-03-19T21:48:13.382Z,57.45
2023-03-19T21:50:43.094Z,59.97
2023-03-19T21:53:12.205Z,73.28
2023-03-19T21:55:40.640Z,79.85
2023-03-19T21:58:12.454Z,81.38
2023-03-19T22:00:41.650Z,85.65
2023-03-19T22:03:17.693Z,91.57
2023-03-19T22:05:46.668Z,106.55
2023-03-19T22:08:16.202Z,109.72
2023-03-19T22:10:45.403Z,124.18
2023-03-19T22:13:21.708Z,107.57
2023-03-19T22:15:52.228Z,133.35
2023-03-19T22:18:22.846Z,170.25
2023-03-19T22:20:51.767Z,184.02
2023-03-19T22:23:21.086Z,221.05
2023-03-19T22:25:51.164Z,193.65
2023-03-19T22:28:24.275Z,202.10
2023-03-19T22:30:53.093Z,198.48
2023-03-19T22:33:24.536Z,210.40
2023-03-19T22:35:53.820Z,216.00
2023-03-19T22:38:24.146Z,185.93
2023-03-19T22:40:54.849Z,183.20
2023-03-19T22:43:29.145Z,171.77
2023-03-19T22:46:00.871Z,173.10
2023-03-19T22:48:30.841Z,186.43
2023-03-19T22:50:59.176Z,156.75
2023-03-19T22:53:30.539Z,168.88
2023-03-19T22:55:59.177Z,153.95
2023-03-19T22:58:28.833Z,156.25
2023-03-19T23:00:57.594Z,154.95
2023-03-19T23:03:28.276Z,138.85
2023-03-19T23:06:00.486Z,147.90
2023-03-19T23:08:28.851Z,134.20
2023-03-19T23:10:57.394Z,130.35
2023-03-19T23:13:25.887Z,123.95
2023-03-19T23:15:58.334Z,117.82
2023-03-19T23:18:31.030Z,119.95
2023-03-19T23:21:01.868Z,109.38
2023-03-19T23:23:31.708Z,114.47
2023-03-19T23:26:00.190Z,110.85
2023-03-19T23:28:32.055Z,100.43
2023-03-19T23:31:02.861Z,105.95
2023-03-19T23:33:31.298Z,106.85
2023-03-19T23:36:01.831Z,99.90
2023-03-19T23:38:30.090Z,86.70
2023-03-19T23:41:01.413Z,110.95
2023-03-19T23:43:30.937Z,81.15
2023-03-19T23:46:00.024Z,93.90
2023-03-19T23:48:33.675Z,84.38
2023-03-19T23:51:03.787Z,88.05
2023-03-19T23:53:32.308Z,90.28
2023-03-19T23:56:03.555Z,86.22
2023-03-19T23:58:39.929Z,76.47
